Time;durP1;ratioP1;P1;durP2;ratioP2;P2;SDS_P1;SDS_P2;PMS_P1;PMS_P2;Temp;Humidity;BMP_temperature;BMP_pressure;BME280_temperature;BME280_humidity;BME280_pressure;Samples;Min_cycle;Max_cycle;Signal;HPM_P1;HPM_P2
2020/12/18 00:02:26;;;;;;;17.85;9.80;;;;;;;10.06;83.68;101770.25;5055374;28;20045;-65
2020/12/18 00:04:53;;;;;;;27.52;9.05;;;;;;;10.12;84.04;101758.97;5054005;28;20057;-69
2020/12/18 00:07:20;;;;;;;22.23;8.95;;;;;;;10.14;83.95;101761.44;5054883;28;20053;-71
2020/12/18 00:09:47;;;;;;;25.17;10.00;;;;;;;10.23;84.21;101755.03;5056625;28;20049;-71
2020/12/18 00:12:14;;;;;;;21.52;8.73;;;;;;;10.33;84.19;101756.91;5056709;28;20045;-67
2020/12/18 00:14:41;;;;;;;22.27;8.75;;;;;;;10.29;84.91;101757.78;5048174;28;20484;-67
2020/12/18 00:17:08;;;;;;;21.70;8.60;;;;;;;10.38;84.43;101754.09;5055032;28;20049;-70
2020/12/18 00:19:40;;;;;;;23.15;8.38;;;;;;;10.38;84.53;101751.34;5037501;28;20060;-70
2020/12/18 00:22:07;;;;;;;20.10;8.77;;;;;;;10.53;84.37;101745.72;5054147;28;20395;-65
2020/12/18 00:29:11;;;;;;;24.50;9.30;;;;;;;10.51;84.48;101747.13;5054243;28;20053;-64
2020/12/18 00:31:38;;;;;;;25.30;8.43;;;;;;;10.46;84.33;101750.72;5054653;28;20048;-65
2020/12/18 00:34:04;;;;;;;24.27;9.27;;;;;;;10.40;84.34;101746.38;5054149;28;20053;-67
2020/12/18 00:36:31;;;;;;;27.10;10.48;;;;;;;10.33;84.48;101740.38;5054144;28;20045;-65
2020/12/18 00:38:58;;;;;;;24.25;10.73;;;;;;;10.28;84.73;101740.41;5054177;28;20056;-65
2020/12/18 00:41:29;;;;;;;23.02;9.23;;;;;;;10.42;84.46;101741.41;5054282;28;20041;-66
2020/12/18 00:44:00;;;;;;;23.63;10.27;;;;;;;10.36;84.40;101739.78;5054536;28;20049;-67
2020/12/18 00:46:27;;;;;;;26.00;9.55;;;;;;;10.57;84.02;101737.69;5054238;28;20060;-65
2020/12/18 00:48:54;;;;;;;23.40;9.00;;;;;;;10.68;83.47;101731.81;5054604;28;20075;-64
2020/12/18 00:51:20;;;;;;;22.58;8.63;;;;;;;10.66;83.54;101739.56;5037217;28;20378;-67
2020/12/18 00:53:54;;;;;;;22.63;9.25;;;;;;;10.50;84.01;101737.19;5036913;28;20055;-65
2020/12/18 00:56:26;;;;;;;28.70;10.27;;;;;;;10.43;84.58;101734.78;5017019;28;20045;-64
2020/12/18 00:58:53;;;;;;;22.25;9.43;;;;;;;10.54;84.41;101722.56;5033159;28;20045;-63
2020/12/18 01:01:22;;;;;;;26.23;9.10;;;;;;;10.49;84.45;101716.28;5016520;28;20049;-64
2020/12/18 01:03:49;;;;;;;20.75;9.02;;;;;;;10.42;84.84;101710.28;5033732;28;20053;-63
2020/12/18 01:06:17;;;;;;;22.58;9.07;;;;;;;10.42;84.61;101705.59;5033382;28;20049;-65
2020/12/18 01:08:56;;;;;;;23.98;9.40;;;;;;;10.68;83.77;101712.53;5017650;28;20045;-64
2020/12/18 01:11:27;;;;;;;24.35;10.07;;;;;;;10.73;83.48;101714.41;5048964;28;20129;-63
2020/12/18 01:13:54;;;;;;;31.30;9.30;;;;;;;10.63;83.75;101707.06;5031569;28;20441;-63
2020/12/18 01:16:21;;;;;;;24.80;7.78;;;;;;;10.85;83.48;101706.56;5033820;28;20045;-64
2020/12/18 01:18:56;;;;;;;29.25;9.30;;;;;;;10.58;83.67;101703.53;5032486;28;20488;-64
2020/12/18 01:21:28;;;;;;;16.33;8.23;;;;;;;10.78;83.51;101712.44;5016275;28;20481;-65
2020/12/18 01:23:55;;;;;;;23.58;8.32;;;;;;;10.62;83.71;101712.84;5016171;28;20053;-65
2020/12/18 01:26:22;;;;;;;27.58;8.40;;;;;;;10.69;83.79;101711.41;5033591;28;20062;-63
2020/12/18 01:28:49;;;;;;;21.60;8.25;;;;;;;10.80;83.07;101712.13;5016073;28;20057;-64
2020/12/18 01:31:17;;;;;;;31.10;9.18;;;;;;;10.88;82.62;101711.53;5016501;28;20045;-64
2020/12/18 01:33:46;;;;;;;25.02;8.57;;;;;;;10.53;83.38;101712.66;5015560;28;20409;-64
2020/12/18 01:36:22;;;;;;;23.50;8.27;;;;;;;10.60;83.73;101713.13;5031856;28;20129;-64
2020/12/18 01:38:53;;;;;;;19.40;8.45;;;;;;;10.53;83.95;101711.84;5031487;28;20045;-64
2020/12/18 01:41:20;;;;;;;26.20;8.52;;;;;;;10.67;83.37;101715.59;5015647;28;20068;-64
2020/12/18 01:43:47;;;;;;;24.10;7.80;;;;;;;10.65;82.99;101704.81;5015414;28;20060;-65
2020/12/18 01:46:15;;;;;;;24.35;8.20;;;;;;;10.72;82.66;101705.31;5015883;28;20067;-63
2020/12/18 01:48:48;;;;;;;23.90;7.80;;;;;;;10.52;83.48;101708.25;5031442;28;20056;-63
2020/12/18 01:51:15;;;;;;;22.50;7.82;;;;;;;10.55;83.57;101693.09;5032253;28;20049;-63
2020/12/18 01:53:44;;;;;;;20.33;7.28;;;;;;;10.51;83.67;101697.53;5047633;28;20397;-64
2020/12/18 01:56:24;;;;;;;21.55;7.75;;;;;;;10.51;82.99;101697.53;5048934;28;20159;-63
2020/12/18 01:59:03;;;;;;;19.00;7.97;;;;;;;10.55;83.08;101696.66;5020473;28;20045;-64
2020/12/18 02:01:50;;;;;;;26.35;8.65;;;;;;;10.49;83.08;101695.09;5034357;28;20053;-64
2020/12/18 02:04:31;;;;;;;18.08;8.30;;;;;;;10.45;82.90;101698.69;5020240;28;20044;-66
2020/12/18 02:07:00;;;;;;;19.85;7.80;;;;;;;10.54;82.29;101689.53;5033617;28;20049;-64
2020/12/18 02:09:37;;;;;;;27.63;8.93;;;;;;;10.39;82.53;101697.91;5034523;28;20404;-65
2020/12/18 02:12:07;;;;;;;23.45;8.77;;;;;;;10.32;82.38;101693.84;5051861;28;20048;-63
2020/12/18 02:14:40;;;;;;;20.85;8.95;;;;;;;10.27;82.69;101694.69;5018114;28;20492;-68
2020/12/18 02:17:07;;;;;;;25.58;9.25;;;;;;;10.13;82.90;101699.22;5034952;28;20048;-67
2020/12/18 02:19:43;;;;;;;23.30;8.50;;;;;;;9.97;83.75;101694.91;5035924;28;20053;-67
2020/12/18 02:22:22;;;;;;;20.98;8.10;;;;;;;10.04;83.66;101701.72;5052498;28;20057;-63
2020/12/18 02:25:02;;;;;;;21.83;8.82;;;;;;;10.26;82.89;101698.56;5020504;28;20045;-68
2020/12/18 02:27:31;;;;;;;24.48;8.52;;;;;;;10.34;81.81;101699.91;5067489;28;20401;-65
2020/12/18 02:30:08;;;;;;;18.35;8.88;;;;;;;10.22;82.12;101700.25;5035262;28;20056;-65
2020/12/18 02:32:58;;;;;;;28.75;9.73;;;;;;;10.06;82.70;101694.00;5021338;28;20040;-65
2020/12/18 02:35:26;;;;;;;21.40;8.82;;;;;;;10.15;82.52;101700.59;5034253;28;20064;-64
2020/12/18 02:42:35;;;;;;;22.10;8.82;;;;;;;10.11;82.56;101682.19;5067468;28;20064;-63
2020/12/18 02:45:03;;;;;;;19.45;8.15;;;;;;;10.17;82.32;101679.09;5052293;28;20067;-64
2020/12/18 02:47:38;;;;;;;22.00;8.73;;;;;;;10.01;82.69;101679.44;5052104;28;20056;-66
2020/12/18 02:50:13;;;;;;;22.70;8.38;;;;;;;10.00;82.35;101675.06;5052506;28;20388;-65
2020/12/18 02:57:21;;;;;;;19.30;8.18;;;;;;;9.61;83.72;101666.78;5034165;28;20507;-64
2020/12/18 03:00:10;;;;;;;16.42;8.13;;;;;;;9.57;83.58;101673.16;5052809;28;20052;-63
2020/12/18 03:02:42;;;;;;;25.08;9.38;;;;;;;9.56;83.61;101672.31;5034819;28;20037;-67
2020/12/18 03:05:09;;;;;;;22.98;8.07;;;;;;;9.43;84.01;101675.66;5052199;28;20060;-62
2020/12/18 03:12:26;;;;;;;13.68;6.88;;;;;;;9.32;84.13;101678.75;5034601;28;20045;-63
2020/12/18 03:14:57;;;;;;;18.48;7.88;;;;;;;9.02;85.04;101682.44;5034451;28;20245;-65
2020/12/18 03:17:44;;;;;;;12.95;7.20;;;;;;;9.22;84.83;101681.56;5051864;28;20056;-62
2020/12/18 03:20:14;;;;;;;21.40;7.37;;;;;;;9.01;84.58;101681.63;5038372;28;20037;-63
2020/12/18 03:27:35;;;;;;;21.98;6.88;;;;;;;8.99;85.47;101681.09;5050168;28;20060;-62
2020/12/18 03:30:06;;;;;;;18.05;6.80;;;;;;;9.03;85.53;101689.59;5071205;28;20049;-63
2020/12/18 03:32:34;;;;;;;23.40;7.28;;;;;;;9.04;84.81;101672.84;5037578;28;20052;-62
2020/12/18 03:35:15;;;;;;;19.63;7.00;;;;;;;9.08;84.91;101687.63;5037480;28;20049;-63
2020/12/18 03:37:52;;;;;;;15.05;7.07;;;;;;;9.05;84.51;101679.97;5038303;28;20488;-65
2020/12/18 03:40:26;;;;;;;20.08;6.90;;;;;;;8.92;85.07;101676.97;5038704;28;20052;-65
2020/12/18 03:43:15;;;;;;;25.42;8.07;;;;;;;8.90;85.01;101679.19;5035216;28;20052;-64
2020/12/18 03:45:42;;;;;;;16.27;7.35;;;;;;;8.90;84.73;101673.69;5021686;28;20056;-64
2020/12/18 03:48:29;;;;;;;16.50;7.28;;;;;;;8.77;85.66;101677.03;5010015;28;20045;-63
2020/12/18 03:51:08;;;;;;;18.55;7.93;;;;;;;8.72;85.39;101677.84;5037046;28;20045;-64
2020/12/18 03:58:18;;;;;;;19.42;6.60;;;;;;;8.89;85.11;101670.13;5037771;28;20484;-62
2020/12/18 04:01:08;;;;;;;;;;;;;;;8.73;85.62;101670.44;4974923;28;20077;-63
2020/12/18 04:03:35;;;;;;;18.95;7.57;;;;;;;8.80;85.48;101669.03;4974503;28;20029;-63
2020/12/18 04:06:06;;;;;;;21.92;7.72;;;;;;;8.86;85.24;101659.69;4973912;28;20058;-63
2020/12/18 04:13:02;;;;;;;17.10;6.72;;;;;;;8.86;84.15;101651.44;4974354;28;20051;-65
2020/12/18 04:15:58;;;;;;;18.52;7.00;;;;;;;8.67;85.03;101661.38;4974012;28;20051;-64
2020/12/18 04:18:25;;;;;;;19.10;6.65;;;;;;;8.61;85.27;101656.19;4957980;28;20063;-63
2020/12/18 04:20:54;;;;;;;17.92;6.95;;;;;;;8.81;84.61;101658.88;4989469;28;20399;-63
2020/12/18 04:27:51;;;;;;;17.77;6.22;;;;;;;8.71;84.72;101656.16;4990088;28;20047;-62
2020/12/18 04:30:27;;;;;;;13.10;6.28;;;;;;;8.80;84.30;101647.06;4973593;28;20051;-64
2020/12/18 04:32:55;;;;;;;18.60;6.40;;;;;;;9.04;83.66;101659.09;4957411;28;20051;-62
2020/12/18 04:35:22;;;;;;;21.50;6.53;;;;;;;9.09;83.46;101658.25;4957598;28;20503;-65
2020/12/18 04:38:13;;;;;;;;;;;;;;;8.80;84.26;101658.03;4993466;28;20053;-63
2020/12/18 04:41:06;;;;;;;13.80;5.88;;;;;;;8.91;84.14;101658.84;5007916;28;19928;-63
2020/12/18 04:43:40;;;;;;;14.43;6.30;;;;;;;9.03;83.71;101662.91;4992316;28;20564;-62
2020/12/18 04:46:18;;;;;;;18.70;6.50;;;;;;;9.09;83.03;101661.81;4992594;28;20050;-61
2020/12/18 04:48:47;;;;;;;16.60;6.30;;;;;;;9.21;83.09;101658.72;5012679;28;20065;-66
2020/12/18 04:51:26;;;;;;;;;;;;;;;9.09;82.67;101650.81;4977825;28;20042;-64
2020/12/18 04:58:31;;;;;;;19.65;6.43;;;;;;;8.88;83.89;101662.16;4994068;28;20064;-65
2020/12/18 05:00:59;;;;;;;18.27;7.18;;;;;;;8.92;83.45;101655.84;5011225;28;20584;-64
2020/12/18 05:03:47;;;;;;;13.15;5.80;;;;;;;8.99;83.24;101645.38;4998757;28;20063;-64
2020/12/18 05:06:17;;;;;;;14.68;6.38;;;;;;;8.97;83.12;101647.56;4995800;28;20058;-64
2020/12/18 05:13:34;;;;;;;11.82;5.20;;;;;;;8.99;82.73;101637.13;5011215;28;20429;-65
2020/12/18 05:16:12;;;;;;;13.93;6.15;;;;;;;8.83;83.47;101629.19;4996927;28;20052;-64
2020/12/18 05:18:39;;;;;;;14.93;5.63;;;;;;;8.87;82.99;101628.34;5040608;28;20053;-62
2020/12/18 05:21:22;;;;;;;17.02;6.68;;;;;;;8.89;82.97;101625.34;5034777;28;20049;-64
2020/12/18 05:28:20;;;;;;;17.27;5.63;;;;;;;8.65;83.39;101616.91;5035575;28;20045;-65
2020/12/18 05:30:54;;;;;;;14.82;5.60;;;;;;;8.62;83.11;101605.66;5035581;28;20044;-62
2020/12/18 05:33:50;;;;;;;18.48;5.78;;;;;;;8.49;83.83;101595.25;5052592;28;20080;-64
2020/12/18 05:36:30;;;;;;;14.57;5.90;;;;;;;8.55;83.60;101600.44;5068898;28;20488;-63
2020/12/18 05:43:33;;;;;;;13.60;5.28;;;;;;;8.45;83.85;101605.97;5053534;28;20048;-62
2020/12/18 05:46:21;;;;;;;13.50;5.50;;;;;;;8.46;83.52;101609.53;5035354;28;20044;-63
2020/12/18 05:49:13;;;;;;;13.63;5.60;;;;;;;8.42;83.56;101614.75;5035154;28;20053;-67
2020/12/18 05:51:55;;;;;;;18.08;5.43;;;;;;;8.34;83.48;101607.06;5035182;28;20045;-67
2020/12/18 05:54:38;;;;;;;15.55;5.88;;;;;;;8.27;83.60;101606.53;5035563;28;20048;-65
2020/12/18 05:57:10;;;;;;;13.70;5.38;;;;;;;8.25;84.21;101595.00;5034131;28;20053;-62
2020/12/18 05:59:49;;;;;;;15.97;5.80;;;;;;;8.52;83.36;101597.44;5034803;28;20053;-63
2020/12/18 06:02:38;;;;;;;15.18;5.35;;;;;;;8.45;82.47;101581.25;5052335;28;20643;-63
2020/12/18 06:05:14;;;;;;;9.90;4.90;;;;;;;8.23;83.18;101571.69;5019946;28;20484;-63
2020/12/18 06:07:54;;;;;;;14.47;5.20;;;;;;;8.38;82.75;101568.91;5035222;28;20057;-65
2020/12/18 06:10:32;;;;;;;13.05;5.43;;;;;;;8.13;82.77;101568.91;5019752;28;20056;-64
2020/12/18 06:13:36;;;;;;;15.93;5.72;;;;;;;8.20;83.42;101570.28;4980763;28;20046;-68
2020/12/18 06:16:30;;;;;;;12.18;5.45;;;;;;;8.11;83.50;101569.19;4976301;28;20445;-65
2020/12/18 06:19:17;;;;;;;12.85;5.60;;;;;;;7.95;84.22;101579.38;4974658;28;20146;-65
2020/12/18 06:22:12;;;;;;;15.95;5.43;;;;;;;7.78;84.80;101583.47;4974776;28;20073;-64
2020/12/18 06:26:19;;;;;;;11.35;5.45;;;;;;;7.61;85.84;101586.50;4914474;29;20068;-61
2020/12/18 06:29:06;;;;;;;18.30;5.82;;;;;;;7.71;85.37;101582.94;4914395;29;20531;-65
2020/12/18 06:31:53;;;;;;;15.70;5.82;;;;;;;7.80;85.29;101579.38;4914175;29;20496;-69
2020/12/18 06:34:50;;;;;;;14.95;5.90;;;;;;;7.70;85.59;101584.03;4900015;29;20064;-69
2020/12/18 06:37:36;;;;;;;16.90;6.35;;;;;;;7.82;85.10;101590.06;4914578;29;20055;-64
2020/12/18 06:44:58;;;;;;;13.43;6.15;;;;;;;8.06;84.22;101584.84;4913798;29;20059;-66
2020/12/18 06:47:30;;;;;;;15.40;6.30;;;;;;;7.96;83.97;101593.91;4913993;29;20067;-65
2020/12/18 06:50:08;;;;;;;14.00;5.85;;;;;;;8.02;83.87;101583.78;4952906;28;20078;-64
2020/12/18 06:52:55;;;;;;;14.07;5.90;;;;;;;8.03;83.44;101597.22;4940415;29;20415;-63
2020/12/18 07:00:22;;;;;;;15.57;5.75;;;;;;;7.85;84.50;101595.00;4965654;28;20062;-66
2020/12/18 07:02:49;;;;;;;11.82;5.53;;;;;;;8.06;84.02;101602.13;4975676;28;20062;-66
2020/12/18 07:05:42;;;;;;;17.15;5.30;;;;;;;7.91;83.76;101608.44;4974962;28;20062;-63
2020/12/18 07:08:13;;;;;;;14.65;6.10;;;;;;;7.89;83.84;101623.53;4975215;28;20059;-64
2020/12/18 07:15:05;;;;;;;16.85;5.60;;;;;;;7.90;83.94;101636.97;4975030;28;20167;-62
2020/12/18 07:17:32;;;;;;;12.52;5.57;;;;;;;7.83;84.35;101646.56;4974302;28;20042;-64
2020/12/18 07:19:59;;;;;;;12.82;5.82;;;;;;;7.86;83.71;101644.09;4974672;28;20398;-63
2020/12/18 07:22:28;;;;;;;14.05;5.78;;;;;;;7.86;83.77;101648.78;4974218;28;20055;-64
2020/12/18 07:29:27;;;;;;;13.38;6.28;;;;;;;7.95;83.11;101655.34;4974013;28;20058;-67
2020/12/18 07:31:57;;;;;;;16.25;6.45;;;;;;;8.21;82.52;101659.75;4958780;28;20398;-64
2020/12/18 07:34:24;;;;;;;12.80;6.20;;;;;;;8.24;81.85;101653.75;4973940;28;20085;-65
2020/12/18 07:36:51;;;;;;;12.35;6.32;;;;;;;8.30;81.82;101658.13;4975056;28;20059;-66
2020/12/18 07:39:18;;;;;;;16.15;5.90;;;;;;;8.31;80.97;101662.53;4993618;28;20522;-64
2020/12/18 07:41:45;;;;;;;14.68;7.13;;;;;;;8.27;80.68;101663.34;5055227;28;20045;-65
2020/12/18 07:44:12;;;;;;;14.40;6.47;;;;;;;8.33;81.23;101674.06;5055007;28;20059;-64
2020/12/18 07:46:40;;;;;;;15.18;6.32;;;;;;;8.24;81.61;101670.22;5046343;28;20460;-64
2020/12/18 07:49:11;;;;;;;12.70;6.32;;;;;;;8.38;80.51;101660.34;5055095;28;20049;-64
2020/12/18 07:51:38;;;;;;;15.40;6.25;;;;;;;8.36;80.53;101657.03;5055346;28;20643;-66
2020/12/18 07:54:05;;;;;;;14.80;6.90;;;;;;;8.38;80.15;101670.50;5054913;28;20045;-63
2020/12/18 07:56:33;;;;;;;16.73;6.47;;;;;;;8.30;80.12;101671.06;5036578;28;20053;-66
2020/12/18 07:59:05;;;;;;;17.17;6.60;;;;;;;8.07;81.25;101672.38;5055219;28;20061;-63
2020/12/18 08:01:34;;;;;;;18.30;6.80;;;;;;;7.96;81.75;101663.31;5037048;28;20055;-67
2020/12/18 08:04:09;;;;;;;17.30;7.03;;;;;;;7.93;81.77;101663.84;5036686;28;20512;-64
2020/12/18 08:06:37;;;;;;;12.80;6.82;;;;;;;7.86;82.42;101662.50;5054826;28;20049;-70
2020/12/18 08:09:13;;;;;;;18.42;7.40;;;;;;;7.85;82.33;101655.34;5038218;28;20049;-64
2020/12/18 08:11:42;;;;;;;14.38;7.03;;;;;;;7.84;82.66;101659.19;5054430;28;20056;-65
2020/12/18 08:14:10;;;;;;;21.33;7.20;;;;;;;7.74;82.67;101662.72;5035978;28;20044;-64
2020/12/18 08:16:45;;;;;;;19.27;7.68;;;;;;;7.88;82.56;101654.78;5053142;28;20052;-66
2020/12/18 08:19:16;;;;;;;16.05;6.78;;;;;;;7.97;82.24;101644.94;5054439;28;20044;-64
2020/12/18 08:21:44;;;;;;;16.95;7.22;;;;;;;7.92;82.02;101647.66;5036443;28;20052;-64
2020/12/18 08:24:16;;;;;;;14.63;6.75;;;;;;;8.04;82.01;101648.22;5053597;28;20049;-65
2020/12/18 08:26:50;;;;;;;15.60;6.85;;;;;;;8.06;81.42;101648.78;5053155;28;20041;-63
2020/12/18 08:29:18;;;;;;;14.35;7.25;;;;;;;8.07;81.32;101661.41;5051725;28;20095;-62
2020/12/18 08:31:46;;;;;;;18.27;7.70;;;;;;;7.77;81.99;101651.25;5035659;28;20048;-62
2020/12/18 08:34:15;;;;;;;17.45;7.90;;;;;;;8.02;82.02;101655.09;5035966;28;20407;-64
2020/12/18 08:36:44;;;;;;;14.77;8.02;;;;;;;8.23;81.71;101660.28;5020008;28;20055;-64
2020/12/18 08:39:15;;;;;;;17.23;7.70;;;;;;;8.47;80.18;101647.66;5054681;28;20040;-61
2020/12/18 08:41:48;;;;;;;13.90;7.55;;;;;;;8.64;78.81;101650.97;5054478;28;20053;-63
2020/12/18 08:44:17;;;;;;;17.98;8.13;;;;;;;8.51;79.84;101653.44;5036260;28;20359;-65
2020/12/18 08:46:45;;;;;;;15.60;8.77;;;;;;;8.61;79.38;101653.44;5036913;28;20369;-70
2020/12/18 08:49:17;;;;;;;21.05;8.10;;;;;;;8.67;79.59;101647.66;5054210;28;20789;-64
2020/12/18 08:51:49;;;;;;;14.77;7.40;;;;;;;8.51;79.89;101642.44;5053662;28;20057;-63
2020/12/18 08:54:31;;;;;;;18.55;8.75;;;;;;;8.29;80.18;101656.50;5054086;28;20056;-65
2020/12/18 08:57:29;;;;;;;20.05;8.25;;;;;;;8.32;79.74;101655.09;5053824;28;20044;-62
2020/12/18 09:00:07;;;;;;;15.85;8.63;;;;;;;8.29;80.08;101648.25;4972534;28;20062;-63
2020/12/18 09:02:41;;;;;;;20.65;8.63;;;;;;;8.16;80.54;101651.50;4957550;28;20179;-63
2020/12/18 09:05:23;;;;;;;15.70;8.27;;;;;;;8.21;80.45;101648.75;4972891;28;20118;-67
2020/12/18 09:07:55;;;;;;;14.52;8.90;;;;;;;8.13;80.43;101657.56;4957577;28;20058;-70
2020/12/18 09:14:45;;;;;;;24.40;9.07;;;;;;;7.99;81.43;101651.81;4972801;28;20055;-69
2020/12/18 09:17:16;;;;;;;23.50;8.65;;;;;;;8.06;80.58;101657.00;4956687;28;20650;-64
2020/12/18 09:19:46;;;;;;;20.17;9.40;;;;;;;7.87;81.42;101653.16;4954110;28;20055;-63
2020/12/18 09:22:16;;;;;;;19.40;9.55;;;;;;;7.84;81.51;101653.72;4969767;28;20055;-68
2020/12/18 09:24:43;;;;;;;19.30;9.65;;;;;;;7.81;81.95;101657.81;4972974;28;20050;-65
2020/12/18 09:27:11;;;;;;;22.83;9.02;;;;;;;8.20;81.24;101652.63;4956533;28;20051;-63
2020/12/18 09:29:39;;;;;;;24.17;9.95;;;;;;;8.29;80.28;101648.25;4964231;28;20050;-63
2020/12/18 09:32:06;;;;;;;33.67;11.35;;;;;;;8.02;80.88;101646.88;4972911;28;20055;-65
2020/12/18 09:34:33;;;;;;;19.70;10.60;;;;;;;8.00;81.21;101645.19;4972219;28;20058;-64
2020/12/18 09:37:10;;;;;;;21.10;10.30;;;;;;;7.97;81.10;101639.44;5032308;28;20064;-64
2020/12/18 09:39:38;;;;;;;27.70;11.80;;;;;;;8.04;81.30;101639.19;5053675;28;20053;-63
2020/12/18 09:42:05;;;;;;;16.83;10.70;;;;;;;7.91;82.01;101635.88;5034947;28;20049;-65
2020/12/18 09:44:32;;;;;;;23.83;11.40;;;;;;;7.93;81.99;101638.34;5052448;28;20049;-64
2020/12/18 09:46:59;;;;;;;22.73;12.00;;;;;;;7.93;82.03;101633.69;5053590;28;20044;-64
2020/12/18 09:49:26;;;;;;;20.33;11.98;;;;;;;7.96;82.15;101629.56;5035194;28;20048;-63
2020/12/18 09:51:53;;;;;;;21.85;12.13;;;;;;;7.97;82.39;101625.72;5018462;28;20059;-64
2020/12/18 09:54:20;;;;;;;23.95;12.48;;;;;;;8.12;81.85;101612.03;5052448;28;20060;-63
2020/12/18 09:56:47;;;;;;;26.10;12.13;;;;;;;8.31;81.40;101612.31;5053024;28;20049;-63
2020/12/18 09:59:14;;;;;;;23.50;11.45;;;;;;;8.44;80.93;101606.25;5052534;28;20052;-63
2020/12/18 10:01:44;;;;;;;26.40;12.40;;;;;;;8.53;80.12;101607.31;5051676;28;20049;-63
2020/12/18 10:04:11;;;;;;;19.73;11.55;;;;;;;8.38;80.89;101605.44;5052669;28;20048;-62
2020/12/18 10:06:39;;;;;;;26.20;11.02;;;;;;;8.45;81.27;101596.91;5054233;28;20052;-64
2020/12/18 10:09:06;;;;;;;21.05;11.90;;;;;;;8.36;81.23;101598.56;5053513;28;20055;-66
2020/12/18 10:11:33;;;;;;;21.10;11.77;;;;;;;8.20;81.68;101597.72;5052231;28;20056;-66
2020/12/18 10:14:00;;;;;;;23.85;11.15;;;;;;;8.33;81.40;101597.22;5052559;28;20507;-71
2020/12/18 10:16:28;;;;;;;24.83;11.18;;;;;;;8.35;81.67;101589.50;5052911;28;20049;-70
2020/12/18 10:18:57;;;;;;;23.65;11.23;;;;;;;8.53;80.83;101582.59;5035233;28;20053;-69
2020/12/18 10:21:24;;;;;;;21.73;11.18;;;;;;;8.65;80.18;101586.69;5052987;28;20051;-69
2020/12/18 10:23:51;;;;;;;20.77;11.45;;;;;;;8.46;80.92;101573.81;5052506;28;20337;-66
2020/12/18 10:26:20;;;;;;;17.57;12.17;;;;;;;8.33;81.45;101580.75;5052647;28;20048;-67
2020/12/18 10:28:47;;;;;;;21.20;10.65;;;;;;;8.59;81.40;101571.34;5052459;28;20048;-66
2020/12/18 10:31:14;;;;;;;19.65;11.65;;;;;;;8.63;81.11;101557.88;5056514;28;20049;-67
2020/12/18 10:33:47;;;;;;;16.38;11.07;;;;;;;8.57;81.06;101572.72;5055401;28;20055;-68
2020/12/18 10:36:18;;;;;;;19.23;11.55;;;;;;;8.46;81.64;101568.34;5071618;28;20058;-66
2020/12/18 10:38:48;;;;;;;20.15;11.52;;;;;;;8.55;81.74;101558.44;5039266;28;20041;-65
2020/12/18 10:41:19;;;;;;;17.52;11.30;;;;;;;8.71;82.01;101554.53;5056174;28;20511;-63
2020/12/18 10:43:50;;;;;;;23.70;12.43;;;;;;;8.71;81.41;101547.13;5056838;28;20121;-65
2020/12/18 10:46:16;;;;;;;15.85;11.32;;;;;;;8.90;80.80;101550.88;5055543;28;20049;-64
2020/12/18 10:48:43;;;;;;;17.10;10.55;;;;;;;8.95;80.10;101552.78;5036456;28;20395;-66
2020/12/18 10:51:10;;;;;;;18.95;10.25;;;;;;;9.05;79.85;101549.97;5055882;28;20045;-64
2020/12/18 10:53:38;;;;;;;19.13;10.95;;;;;;;9.13;79.58;101545.81;5056546;28;20049;-69
2020/12/18 10:56:07;;;;;;;23.85;11.43;;;;;;;9.20;79.54;101538.06;5055361;28;20045;-69
2020/12/18 10:59:01;;;;;;;21.52;10.35;;;;;;;9.18;79.54;101526.53;5056542;28;20511;-70
2020/12/18 11:01:28;;;;;;;17.23;11.15;;;;;;;9.01;79.48;101513.19;5056075;28;20065;-63
2020/12/18 11:03:55;;;;;;;17.92;10.82;;;;;;;9.01;80.25;101507.69;5055742;28;20048;-71
2020/12/18 11:06:22;;;;;;;20.48;10.00;;;;;;;9.19;79.61;101503.47;5056498;28;20045;-67
2020/12/18 11:08:49;;;;;;;15.13;9.25;;;;;;;9.32;79.06;101500.06;5055618;28;20060;-70
2020/12/18 11:11:16;;;;;;;14.75;8.82;;;;;;;9.28;79.28;101490.72;5055578;28;20048;-68
2020/12/18 11:13:43;;;;;;;16.48;10.13;;;;;;;9.18;79.76;101493.56;5038459;28;20052;-68
2020/12/18 11:16:11;;;;;;;18.13;9.45;;;;;;;9.20;80.17;101481.19;5055429;28;20061;-70
2020/12/18 11:18:39;;;;;;;15.38;9.45;;;;;;;9.33;79.71;101480.53;5055964;28;20049;-64
2020/12/18 11:21:06;;;;;;;15.13;9.35;;;;;;;9.34;79.66;101465.69;5038678;28;20044;-64
2020/12/18 11:23:36;;;;;;;14.93;9.02;;;;;;;9.40;78.88;101458.19;5037012;28;20057;-65
2020/12/18 11:26:07;;;;;;;14.68;8.73;;;;;;;9.57;79.02;101444.88;5022067;28;20067;-66
2020/12/18 11:28:33;;;;;;;14.23;8.55;;;;;;;9.77;78.26;101442.75;5055921;28;20056;-66
2020/12/18 11:31:01;;;;;;;14.38;9.18;;;;;;;9.47;78.38;101434.78;5070359;28;20045;-63
2020/12/18 11:33:31;;;;;;;13.60;8.27;;;;;;;9.83;78.42;101430.56;5055836;28;20048;-67
2020/12/18 11:35:59;;;;;;;13.27;8.15;;;;;;;9.86;77.46;101419.00;5055219;28;20496;-62
2020/12/18 11:38:26;;;;;;;13.43;8.65;;;;;;;9.73;77.81;101416.09;5037894;28;20048;-65
2020/12/18 11:40:53;;;;;;;21.88;8.65;;;;;;;9.70;78.26;101413.91;5037786;28;20048;-66
2020/12/18 11:43:20;;;;;;;13.02;8.18;;;;;;;9.66;78.50;101408.19;5055573;28;20441;-66
2020/12/18 11:45:47;;;;;;;16.30;9.15;;;;;;;9.71;78.84;101396.31;5056113;28;20056;-66
2020/12/18 11:48:14;;;;;;;19.40;9.50;;;;;;;9.77;78.76;101387.72;5037976;28;20050;-61
2020/12/18 11:50:41;;;;;;;16.50;9.55;;;;;;;9.93;78.14;101378.19;5055514;28;20373;-64
2020/12/18 11:53:10;;;;;;;13.95;8.60;;;;;;;9.98;77.72;101372.63;5055050;28;20513;-66
2020/12/18 11:55:38;;;;;;;14.27;8.18;;;;;;;9.93;78.02;101364.44;5054470;28;20501;-67
2020/12/18 12:02:38;;;;;;;11.93;7.93;;;;;;;10.33;76.67;101343.00;5034914;28;20060;-69
2020/12/18 12:05:05;;;;;;;14.55;8.15;;;;;;;10.31;76.61;101345.25;5035730;28;20056;-68
2020/12/18 12:07:32;;;;;;;16.95;9.68;;;;;;;10.34;76.40;101348.22;5035449;28;20046;-64
2020/12/18 12:09:59;;;;;;;17.55;8.38;;;;;;;10.41;75.81;101345.13;5017849;28;20064;-65
2020/12/18 12:17:04;;;;;;;12.60;6.72;;;;;;;10.64;75.58;101327.69;5037204;28;20045;-62
2020/12/18 12:19:31;;;;;;;12.93;6.95;;;;;;;10.71;74.89;101320.69;5034235;28;20049;-66
2020/12/18 12:22:00;;;;;;;13.77;7.10;;;;;;;10.75;74.91;101321.72;5034224;28;20057;-66
2020/12/18 12:24:27;;;;;;;14.00;7.07;;;;;;;10.77;75.07;101310.41;5017194;28;20061;-65
2020/12/18 12:26:55;;;;;;;11.18;7.07;;;;;;;10.86;74.17;101303.91;5034035;28;20337;-63
2020/12/18 12:29:23;;;;;;;13.88;6.35;;;;;;;10.90;74.74;101299.41;5016196;28;20049;-62
2020/12/18 12:31:51;;;;;;;10.75;6.50;;;;;;;11.07;73.72;101287.84;5035055;28;20048;-65
2020/12/18 12:34:33;;;;;;;12.07;6.25;;;;;;;11.07;73.51;101282.34;5034414;28;20052;-67
2020/12/18 12:37:02;;;;;;;10.02;6.18;;;;;;;11.01;73.78;101281.59;5034555;28;20041;-70
2020/12/18 12:39:30;;;;;;;9.23;5.60;;;;;;;11.00;73.50;101279.16;5050021;28;20512;-66
2020/12/18 12:42:01;;;;;;;10.75;5.90;;;;;;;11.29;72.98;101283.28;5034087;28;20053;-70
2020/12/18 12:44:32;;;;;;;10.88;5.85;;;;;;;11.22;72.85;101276.53;5033809;28;20050;-68
2020/12/18 12:47:08;;;;;;;10.35;5.82;;;;;;;11.17;72.78;101279.38;5016179;28;20053;-65
2020/12/18 12:49:35;;;;;;;11.50;5.50;;;;;;;11.05;73.09;101287.31;5033898;28;20061;-69
2020/12/18 12:52:02;;;;;;;15.50;5.22;;;;;;;11.13;72.55;101281.09;5032534;28;20068;-63
2020/12/18 12:54:29;;;;;;;10.32;4.80;;;;;;;11.22;71.92;101279.28;5016656;28;20481;-63
2020/12/18 12:56:56;;;;;;;10.00;5.05;;;;;;;11.19;71.88;101279.91;5032787;28;20049;-60
2020/12/18 12:59:23;;;;;;;13.90;4.85;;;;;;;11.28;71.80;101275.28;5034114;28;20049;-65
2020/12/18 13:01:50;;;;;;;12.55;5.03;;;;;;;11.39;70.78;101279.50;5047114;28;20063;-62
2020/12/18 13:04:19;;;;;;;8.98;4.50;;;;;;;11.42;71.14;101280.84;5053885;28;20059;-61
2020/12/18 13:06:46;;;;;;;10.02;4.70;;;;;;;11.64;70.47;101287.34;5054339;28;20056;-66
2020/12/18 13:09:13;;;;;;;11.55;4.97;;;;;;;11.59;70.28;101286.59;5053415;28;20057;-64
2020/12/18 13:11:40;;;;;;;8.13;4.70;;;;;;;11.76;69.51;101282.13;5053598;28;20069;-67
2020/12/18 13:14:07;;;;;;;9.82;4.60;;;;;;;11.88;69.20;101276.06;5052142;28;20045;-67